createdAt,value
2019-04-21T00:00:29.782Z,49.70
2019-04-21T00:03:08.906Z,49.80
2019-04-21T00:05:55.814Z,49.60
2019-04-21T00:08:35.332Z,50.70
2019-04-21T00:10:57.821Z,50.20
2019-04-21T00:13:21.142Z,50.20
2019-04-21T00:15:45.753Z,50.00
2019-04-21T00:18:19.063Z,49.90
2019-04-21T00:20:52.880Z,49.90
2019-04-21T00:23:37.750Z,50.00
2019-04-21T00:26:01.996Z,50.40
2019-04-21T00:28:47.217Z,50.30
2019-04-21T00:31:13.866Z,50.00
2019-04-21T00:33:29.992Z,50.60
2019-04-21T00:36:05.334Z,50.50
2019-04-21T00:39:02.981Z,50.50
2019-04-21T00:41:19.315Z,50.80
2019-04-21T00:43:47.930Z,50.80
2019-04-21T00:46:08.599Z,50.90
2019-04-21T00:48:53.966Z,50.80
2019-04-21T00:51:36.723Z,51.20
2019-04-21T00:54:05.414Z,51.20
2019-04-21T00:56:27.882Z,51.00
2019-04-21T00:58:59.939Z,51.20
2019-04-21T01:01:31.170Z,51.30
2019-04-21T01:04:04.803Z,51.60
2019-04-21T01:06:36.900Z,51.70
2019-04-21T01:09:03.763Z,51.60
2019-04-21T01:11:31.847Z,51.30
2019-04-21T01:14:12.045Z,51.90
2019-04-21T01:16:43.906Z,52.00
2019-04-21T01:19:05.096Z,51.70
2019-04-21T01:21:19.099Z,51.90
2019-04-21T01:23:48.724Z,52.30
2019-04-21T01:26:32.510Z,51.90
2019-04-21T01:29:08.712Z,52.00
2019-04-21T01:31:36.333Z,52.30
2019-04-21T01:34:16.315Z,52.50
2019-04-21T01:36:41.537Z,52.90
2019-04-21T01:39:35.028Z,52.90
2019-04-21T01:41:51.124Z,53.20
2019-04-21T01:44:19.678Z,53.20
2019-04-21T01:46:45.585Z,53.50
2019-04-21T01:49:13.145Z,53.90
2019-04-21T01:52:05.626Z,53.90
2019-04-21T01:54:40.389Z,53.80
2019-04-21T01:57:17.657Z,53.90
2019-04-21T01:59:42.504Z,53.90
2019-04-21T02:02:26.628Z,53.80
2019-04-21T02:04:57.576Z,53.90
2019-04-21T02:07:27.493Z,53.80
2019-04-21T02:10:00.784Z,53.80
2019-04-21T02:12:30.010Z,53.90
2019-04-21T02:15:08.903Z,54.00
2019-04-21T02:17:31.151Z,54.50
2019-04-21T02:19:56.210Z,54.30
2019-04-21T02:22:56.064Z,54.50
2019-04-21T02:25:08.685Z,54.70
2019-04-21T02:27:37.671Z,54.60
2019-04-21T02:30:14.250Z,54.80
2019-04-21T02:32:48.132Z,55.00
2019-04-21T02:35:30.171Z,55.00
2019-04-21T02:38:02.001Z,55.70
2019-04-21T02:45:29.679Z,55.80
2019-04-21T02:50:29.809Z,55.70
2019-04-21T02:58:08.349Z,55.90
2019-04-21T03:03:56.230Z,56.00
2019-04-21T03:06:45.689Z,56.30
2019-04-21T03:09:20.427Z,56.30
2019-04-21T03:11:52.291Z,56.80
2019-04-21T03:14:16.407Z,56.70
2019-04-21T03:16:46.949Z,56.70
2019-04-21T03:19:39.823Z,57.20
2019-04-21T03:21:52.136Z,56.90
2019-04-21T03:24:18.453Z,56.80
2019-04-21T03:27:01.889Z,57.40
2019-04-21T03:29:28.177Z,57.10
2019-04-21T03:32:28.437Z,57.20
2019-04-21T03:34:41.737Z,57.40
2019-04-21T03:39:30.908Z,58.00
2019-04-21T03:44:32.220Z,58.10
2019-04-21T03:54:39.186Z,58.50
2019-04-21T03:59:36.173Z,58.40
2019-04-21T04:05:03.014Z,58.30
2019-04-21T04:07:50.203Z,58.40
2019-04-21T04:12:44.475Z,58.30
2019-04-21T04:15:22.815Z,58.60
2019-04-21T04:17:40.390Z,58.40
2019-04-21T04:20:22.275Z,59.10
2019-04-21T04:22:56.329Z,58.60
2019-04-21T04:25:17.493Z,58.80
2019-04-21T04:27:59.897Z,58.80
2019-04-21T04:30:22.326Z,58.80
2019-04-21T04:32:46.316Z,58.80
2019-04-21T04:35:34.167Z,58.90
2019-04-21T04:38:13.640Z,58.80
2019-04-21T04:40:51.820Z,58.80
2019-04-21T04:48:05.814Z,59.00
2019-04-21T04:50:49.272Z,59.10
2019-04-21T04:53:15.709Z,59.60
2019-04-21T04:55:57.496Z,59.40
2019-04-21T04:58:23.413Z,59.50
2019-04-21T05:00:54.607Z,59.60
2019-04-21T05:09:04.255Z,59.30
2019-04-21T05:11:43.213Z,59.40
2019-04-21T05:14:02.774Z,59.30
2019-04-21T05:21:38.691Z,59.20
2019-04-21T05:23:51.148Z,59.10
2019-04-21T05:26:18.946Z,59.60
2019-04-21T05:28:47.516Z,59.20
2019-04-21T05:31:57.269Z,59.90
2019-04-21T05:34:27.621Z,59.30
2019-04-21T05:37:21.959Z,59.50
2019-04-21T05:40:05.739Z,59.40
2019-04-21T05:42:33.791Z,59.70
2019-04-21T05:45:18.485Z,59.60
2019-04-21T05:50:23.925Z,59.90
2019-04-21T05:52:53.561Z,60.10
2019-04-21T05:57:57.374Z,59.70
2019-04-21T06:00:52.646Z,59.90
2019-04-21T06:03:03.725Z,59.90
2019-04-21T06:08:08.909Z,59.70
2019-04-21T06:10:41.896Z,60.10
2019-04-21T06:13:13.076Z,60.00
2019-04-21T06:15:49.984Z,60.00
2019-04-21T06:18:21.783Z,60.00
2019-04-21T06:20:46.721Z,59.80
2019-04-21T06:23:22.422Z,59.30
2019-04-21T06:28:22.614Z,59.40
2019-04-21T06:30:59.324Z,59.50
2019-04-21T06:33:20.220Z,59.30
2019-04-21T06:36:24.051Z,59.30
2019-04-21T06:46:30.897Z,59.60
2019-04-21T06:54:04.397Z,59.80
2019-04-21T06:56:38.021Z,59.60
2019-04-21T06:59:03.707Z,59.70
2019-04-21T07:01:36.776Z,60.00
2019-04-21T07:04:11.724Z,59.20
2019-04-21T07:06:46.964Z,59.30
2019-04-21T07:09:18.979Z,59.90
2019-04-21T07:11:37.854Z,59.70
2019-04-21T07:14:28.024Z,59.20
2019-04-21T07:16:45.241Z,59.20
2019-04-21T07:21:42.213Z,59.20
2019-04-21T07:24:21.607Z,59.90
2019-04-21T07:26:42.731Z,60.00
2019-04-21T07:31:55.837Z,59.90
2019-04-21T07:34:21.716Z,60.10
2019-04-21T07:39:18.016Z,59.70
2019-04-21T07:41:46.992Z,60.10
2019-04-21T07:44:15.023Z,59.40
2019-04-21T07:46:46.989Z,59.50
2019-04-21T07:49:46.453Z,60.00
2019-04-21T07:52:34.962Z,59.00
2019-04-21T07:57:33.053Z,58.90
2019-04-21T08:00:21.380Z,58.10
2019-04-21T08:02:35.480Z,58.10
2019-04-21T08:05:16.281Z,58.20
2019-04-21T08:10:09.188Z,58.50
2019-04-21T08:12:37.932Z,58.60
2019-04-21T08:15:23.996Z,58.00
2019-04-21T08:17:45.705Z,57.70
2019-04-21T08:20:13.913Z,57.90
2019-04-21T08:27:55.644Z,57.60
2019-04-21T08:30:28.805Z,57.00
2019-04-21T08:33:04.380Z,57.20
2019-04-21T08:35:49.013Z,56.70
2019-04-21T08:37:55.650Z,56.60
2019-04-21T08:40:34.736Z,57.20
2019-04-21T08:42:56.770Z,56.90
2019-04-21T08:48:00.860Z,56.10
2019-04-21T08:50:30.877Z,56.20
2019-04-21T08:53:21.189Z,55.70
2019-04-21T08:55:56.607Z,55.20
2019-04-21T08:58:41.388Z,55.20
2019-04-21T09:01:23.823Z,55.00
2019-04-21T09:04:07.567Z,54.80
2019-04-21T09:09:10.965Z,54.20
2019-04-21T09:11:37.620Z,53.50
2019-04-21T09:14:13.582Z,52.80
2019-04-21T09:16:36.648Z,53.10
2019-04-21T09:19:11.571Z,52.30
2019-04-21T09:21:45.557Z,52.70
2019-04-21T09:24:16.226Z,52.60
2019-04-21T09:26:40.667Z,52.50
2019-04-21T09:29:07.858Z,51.60
2019-04-21T09:31:44.699Z,50.50
2019-04-21T09:34:21.933Z,50.50
2019-04-21T09:36:49.419Z,50.50
2019-04-21T09:39:20.157Z,48.90
2019-04-21T09:41:49.932Z,48.30
2019-04-21T09:44:25.508Z,47.90
2019-04-21T09:46:54.323Z,47.60
2019-04-21T09:49:25.341Z,47.30
2019-04-21T09:51:52.977Z,47.90
2019-04-21T09:54:27.798Z,47.50
2019-04-21T09:56:58.582Z,47.10
2019-04-21T09:59:31.363Z,46.70
2019-04-21T10:02:07.728Z,46.20
2019-04-21T10:04:27.157Z,46.60
2019-04-21T10:06:56.629Z,45.90
2019-04-21T10:09:26.449Z,45.80
2019-04-21T10:11:57.012Z,45.10
2019-04-21T10:14:26.641Z,45.30
2019-04-21T10:17:15.108Z,44.40
2019-04-21T10:19:46.252Z,43.40
2019-04-21T10:22:17.034Z,43.70
2019-04-21T10:24:46.774Z,43.40
2019-04-21T10:27:17.121Z,43.20
2019-04-21T10:29:48.551Z,43.30
2019-04-21T10:32:21.325Z,42.90
2019-04-21T10:34:49.600Z,41.90
2019-04-21T10:37:20.785Z,41.40
2019-04-21T10:39:51.494Z,41.80
2019-04-21T10:42:21.475Z,43.00
2019-04-21T10:44:51.119Z,40.70
2019-04-21T10:47:21.056Z,40.60
2019-04-21T10:49:50.705Z,40.80
2019-04-21T10:52:32.904Z,41.10
2019-04-21T10:55:17.650Z,40.20
2019-04-21T10:57:34.889Z,40.90
2019-04-21T11:00:08.688Z,40.00
2019-04-21T11:02:43.307Z,38.50
2019-04-21T11:05:14.461Z,38.90
2019-04-21T11:08:01.243Z,37.80
2019-04-21T11:10:20.105Z,37.90
2019-04-21T11:12:50.743Z,37.30
2019-04-21T11:15:21.201Z,36.60
2019-04-21T11:17:50.806Z,36.60
2019-04-21T11:20:22.802Z,36.80
2019-04-21T11:22:53.573Z,36.80
2019-04-21T11:25:24.274Z,37.10
2019-04-21T11:27:55.232Z,36.90
2019-04-21T11:30:25.596Z,36.00
2019-04-21T11:32:55.394Z,36.40
2019-04-21T11:35:25.471Z,36.40
2019-04-21T11:38:04.669Z,37.50
2019-04-21T11:40:27.672Z,37.00
2019-04-21T11:42:58.249Z,37.70
2019-04-21T11:45:32.718Z,37.90
2019-04-21T11:48:20.146Z,38.40
2019-04-21T11:50:50.884Z,39.10
2019-04-21T11:53:21.012Z,39.80
2019-04-21T11:55:53.218Z,39.70
2019-04-21T11:58:22.028Z,40.00
2019-04-21T12:00:55.716Z,40.00
2019-04-21T12:03:25.316Z,40.00
2019-04-21T12:05:55.306Z,40.20
2019-04-21T12:08:32.616Z,40.10
2019-04-21T12:10:57.610Z,40.20
2019-04-21T12:13:27.883Z,41.00
2019-04-21T12:15:59.052Z,41.20
2019-04-21T12:18:30.131Z,42.30
2019-04-21T12:21:01.061Z,41.60
2019-04-21T12:23:30.636Z,41.40
2019-04-21T12:26:01.219Z,41.60
2019-04-21T12:28:32.299Z,41.80
2019-04-21T12:31:03.306Z,41.90
2019-04-21T12:33:58.170Z,41.10
2019-04-21T12:36:27.747Z,41.10
2019-04-21T12:39:00.060Z,41.60
2019-04-21T12:41:28.787Z,41.80
2019-04-21T12:43:58.536Z,41.80
2019-04-21T12:46:27.988Z,41.90
2019-04-21T12:48:58.016Z,41.70
2019-04-21T12:51:28.056Z,41.40
2019-04-21T12:53:57.822Z,41.90
2019-04-21T12:56:27.597Z,41.70
2019-04-21T12:58:57.698Z,41.70
2019-04-21T13:01:27.430Z,41.70
2019-04-21T13:03:57.845Z,41.10
2019-04-21T13:06:27.734Z,40.70
2019-04-21T13:09:03.407Z,40.70
2019-04-21T13:11:29.024Z,40.80
2019-04-21T13:13:59.770Z,41.00
2019-04-21T13:16:29.561Z,40.50
2019-04-21T13:18:59.519Z,41.20
2019-04-21T13:21:29.915Z,41.60
2019-04-21T13:24:00.882Z,42.00
2019-04-21T13:26:42.188Z,41.40
2019-04-21T13:29:02.668Z,41.40
2019-04-21T13:31:32.265Z,40.40
2019-04-21T13:34:02.148Z,40.00
2019-04-21T13:36:31.821Z,40.30
2019-04-21T13:39:53.619Z,40.20
2019-04-21T13:42:10.118Z,40.30
2019-04-21T13:44:30.899Z,40.00
2019-04-21T13:47:00.832Z,39.80
2019-04-21T13:49:31.558Z,39.40
2019-04-21T13:52:02.547Z,39.30
2019-04-21T13:54:33.619Z,39.10
2019-04-21T13:57:04.781Z,39.50
2019-04-21T13:59:34.510Z,39.50
2019-04-21T14:02:04.742Z,39.60
2019-04-21T14:04:35.569Z,39.60
2019-04-21T14:07:06.059Z,39.00
2019-04-21T14:09:43.749Z,39.00
2019-04-21T14:12:07.616Z,39.20
2019-04-21T14:14:38.522Z,39.10
2019-04-21T14:17:08.930Z,39.10
2019-04-21T14:19:39.417Z,38.90
2019-04-21T14:22:11.619Z,39.10
2019-04-21T14:24:41.527Z,39.60
2019-04-21T14:27:12.152Z,39.00
2019-04-21T14:29:41.833Z,39.00
2019-04-21T14:32:11.454Z,38.50
2019-04-21T14:34:41.959Z,38.70
2019-04-21T14:37:13.036Z,38.60
2019-04-21T14:39:53.844Z,38.30
2019-04-21T14:42:14.061Z,38.80
2019-04-21T14:44:44.976Z,38.70
2019-04-21T14:47:35.076Z,38.80
2019-04-21T14:50:24.235Z,40.40
2019-04-21T14:53:29.654Z,39.10
2019-04-21T14:55:59.576Z,39.50
2019-04-21T14:58:29.118Z,39.80
2019-04-21T15:01:02.145Z,39.60
2019-04-21T15:03:32.142Z,39.50
2019-04-21T15:06:03.148Z,39.20
2019-04-21T15:08:33.420Z,39.40
2019-04-21T15:11:03.259Z,39.70
2019-04-21T15:13:32.846Z,39.70
2019-04-21T15:16:02.720Z,39.30
2019-04-21T15:18:32.773Z,39.00
2019-04-21T15:21:03.641Z,39.00
2019-04-21T15:23:33.990Z,39.30
2019-04-21T15:26:04.183Z,39.20
2019-04-21T15:28:35.729Z,38.90
2019-04-21T15:31:04.996Z,38.80
2019-04-21T15:33:35.011Z,38.80
2019-04-21T15:36:05.106Z,39.20
2019-04-21T15:38:35.878Z,38.80
2019-04-21T15:41:10.140Z,38.70
2019-04-21T15:43:36.815Z,38.80
2019-04-21T15:46:06.821Z,39.40
2019-04-21T15:48:37.050Z,39.10
2019-04-21T15:51:08.549Z,38.90
2019-04-21T15:53:38.014Z,39.00
2019-04-21T15:56:12.889Z,39.10
2019-04-21T15:59:01.741Z,39.00
2019-04-21T16:01:38.954Z,39.20
2019-04-21T16:04:08.702Z,38.80
2019-04-21T16:06:39.382Z,38.70
2019-04-21T16:09:16.071Z,38.90
2019-04-21T16:11:42.131Z,39.10
2019-04-21T16:14:11.867Z,38.90
2019-04-21T16:16:43.276Z,38.90
2019-04-21T16:19:14.169Z,39.10
2019-04-21T16:21:46.285Z,38.60
2019-04-21T16:24:16.321Z,38.40
2019-04-21T16:26:48.792Z,38.80
2019-04-21T16:29:18.441Z,39.00
2019-04-21T16:31:49.091Z,38.70
2019-04-21T16:34:19.850Z,39.00
2019-04-21T16:36:49.772Z,39.10
2019-04-21T16:39:19.690Z,38.90
2019-04-21T16:41:50.028Z,39.20
2019-04-21T16:44:20.905Z,39.10
2019-04-21T16:46:51.695Z,39.00
2019-04-21T16:49:22.026Z,38.20
2019-04-21T16:52:16.595Z,38.10
2019-04-21T16:54:49.708Z,39.10
2019-04-21T16:57:28.038Z,38.50
2019-04-21T17:00:04.410Z,38.40
2019-04-21T17:02:34.525Z,38.60
2019-04-21T17:05:04.911Z,38.70
2019-04-21T17:07:34.472Z,38.60
2019-04-21T17:10:04.588Z,38.00
2019-04-21T17:12:35.606Z,38.20
2019-04-21T17:15:21.550Z,38.30
2019-04-21T17:18:00.214Z,38.50
2019-04-21T17:20:21.667Z,39.00
2019-04-21T17:22:43.845Z,38.70
2019-04-21T17:25:16.129Z,38.70
2019-04-21T17:27:46.996Z,38.60
2019-04-21T17:30:17.221Z,38.50
2019-04-21T17:32:49.760Z,38.70
2019-04-21T17:35:19.810Z,39.20
2019-04-21T17:37:50.026Z,39.90
2019-04-21T17:40:26.446Z,39.10
2019-04-21T17:43:01.947Z,39.90
2019-04-21T17:45:28.893Z,39.60
2019-04-21T17:48:03.311Z,40.10
2019-04-21T17:50:59.279Z,39.80
2019-04-21T17:53:40.245Z,40.50
2019-04-21T17:56:31.731Z,41.00
2019-04-21T17:59:00.585Z,41.10
2019-04-21T18:01:32.060Z,41.60
2019-04-21T18:04:05.239Z,41.80
2019-04-21T18:06:44.295Z,41.30
2019-04-21T18:09:25.153Z,41.20
2019-04-21T18:11:46.833Z,41.60
2019-04-21T18:13:59.667Z,42.40
2019-04-21T18:16:36.389Z,42.30
2019-04-21T18:19:00.479Z,41.30
2019-04-21T18:21:54.120Z,41.10
2019-04-21T18:24:22.598Z,42.10
2019-04-21T18:26:56.573Z,41.70
2019-04-21T18:29:23.449Z,42.20
2019-04-21T18:31:57.687Z,41.70
2019-04-21T18:35:05.987Z,42.10
2019-04-21T18:38:11.370Z,42.00
2019-04-21T18:40:33.022Z,42.30
2019-04-21T18:43:42.158Z,42.80
2019-04-21T18:48:52.144Z,43.40
2019-04-21T18:51:34.900Z,43.40
2019-04-21T18:54:27.297Z,44.30
2019-04-21T18:56:44.064Z,43.70
2019-04-21T18:59:07.046Z,43.60
2019-04-21T19:01:38.453Z,43.50
2019-04-21T19:04:16.750Z,43.90
2019-04-21T19:06:56.150Z,44.00
2019-04-21T19:09:41.445Z,44.20
2019-04-21T19:12:20.846Z,44.70
2019-04-21T19:14:53.924Z,44.60
2019-04-21T19:20:00.839Z,45.00
2019-04-21T19:22:28.141Z,45.20
2019-04-21T19:24:59.431Z,45.40
2019-04-21T19:27:26.379Z,45.20
2019-04-21T19:30:08.362Z,45.40
2019-04-21T19:32:28.813Z,45.90
2019-04-21T19:34:45.543Z,46.00
2019-04-21T19:37:18.927Z,46.20
2019-04-21T19:40:03.569Z,46.30
2019-04-21T19:42:32.241Z,46.40
2019-04-21T19:45:11.799Z,46.70
2019-04-21T19:47:48.869Z,46.70
2019-04-21T19:50:16.897Z,46.70
2019-04-21T19:52:42.334Z,46.60
2019-04-21T19:55:02.381Z,46.70
2019-04-21T19:57:32.193Z,46.50
2019-04-21T20:00:04.154Z,46.90
2019-04-21T20:02:34.296Z,47.00
2019-04-21T20:05:09.536Z,47.10
2019-04-21T20:07:55.806Z,47.10
2019-04-21T20:10:26.993Z,47.70
2019-04-21T20:12:57.034Z,47.10
2019-04-21T20:15:36.101Z,47.10
2019-04-21T20:17:58.827Z,47.00
2019-04-21T20:20:15.242Z,47.20
2019-04-21T20:22:48.516Z,47.10
2019-04-21T20:25:20.882Z,47.30
2019-04-21T20:27:55.452Z,47.60
2019-04-21T20:30:37.769Z,47.50
2019-04-21T20:33:31.886Z,47.60
2019-04-21T20:35:48.569Z,47.60
2019-04-21T20:38:11.412Z,47.90
2019-04-21T20:40:36.203Z,47.60
2019-04-21T20:43:17.717Z,48.00
2019-04-21T20:45:45.811Z,47.30
2019-04-21T20:48:07.280Z,47.40
2019-04-21T20:50:41.761Z,47.40
2019-04-21T20:53:14.950Z,47.60
2019-04-21T20:55:48.979Z,47.50
2019-04-21T20:58:37.271Z,47.60
2019-04-21T21:01:20.264Z,47.50
2019-04-21T21:03:37.780Z,47.80
2019-04-21T21:05:58.541Z,47.70
2019-04-21T21:08:40.372Z,47.70
2019-04-21T21:11:06.859Z,47.20
2019-04-21T21:13:44.950Z,47.10
2019-04-21T21:16:27.226Z,47.70
2019-04-21T21:21:16.122Z,47.00
2019-04-21T21:23:49.303Z,47.10
2019-04-21T21:26:21.526Z,47.00
2019-04-21T21:28:45.957Z,46.50
2019-04-21T21:31:25.263Z,46.50
2019-04-21T21:33:58.387Z,46.90
2019-04-21T21:36:20.648Z,46.80
2019-04-21T21:38:55.922Z,46.80
2019-04-21T21:41:16.413Z,46.90
2019-04-21T21:43:39.171Z,46.80
2019-04-21T21:46:26.623Z,47.00
2019-04-21T21:48:50.061Z,46.90
2019-04-21T21:51:20.541Z,46.70
2019-04-21T21:53:42.567Z,46.70
2019-04-21T21:56:14.352Z,46.30
2019-04-21T21:58:46.237Z,46.70
2019-04-21T22:01:20.779Z,46.30
2019-04-21T22:03:58.325Z,46.60
2019-04-21T22:06:20.512Z,46.70
2019-04-21T22:08:50.420Z,46.50
2019-04-21T22:11:20.192Z,46.60
2019-04-21T22:14:02.812Z,46.40
2019-04-21T22:16:38.986Z,46.50
2019-04-21T22:19:15.621Z,46.60
2019-04-21T22:21:47.612Z,46.70
2019-04-21T22:24:09.549Z,46.80
2019-04-21T22:26:34.736Z,46.50
2019-04-21T22:29:05.591Z,46.90
2019-04-21T22:31:37.860Z,46.90
2019-04-21T22:34:09.421Z,46.90
2019-04-21T22:36:49.419Z,46.90
2019-04-21T22:39:30.667Z,46.90
2019-04-21T22:41:46.670Z,47.00
2019-04-21T22:44:20.762Z,46.20
2019-04-21T22:47:00.003Z,46.80
2019-04-21T22:49:23.586Z,46.90
2019-04-21T22:51:53.866Z,47.00
2019-04-21T22:54:31.773Z,47.30
2019-04-21T22:57:01.633Z,47.20
2019-04-21T22:59:28.130Z,47.20
2019-04-21T23:01:59.193Z,46.90
2019-04-21T23:04:35.884Z,47.40
2019-04-21T23:07:06.973Z,47.50
2019-04-21T23:09:32.855Z,47.10
2019-04-21T23:12:03.323Z,47.10
2019-04-21T23:14:46.836Z,47.20
2019-04-21T23:17:29.195Z,47.30
2019-04-21T23:19:59.977Z,47.30
2019-04-21T23:22:30.501Z,47.30
2019-04-21T23:24:59.512Z,47.70
2019-04-21T23:27:24.050Z,47.80
2019-04-21T23:30:08.408Z,47.60
2019-04-21T23:32:29.495Z,47.70
2019-04-21T23:34:47.078Z,48.00
2019-04-21T23:37:21.815Z,48.00
2019-04-21T23:39:52.211Z,48.50
2019-04-21T23:42:27.194Z,48.10
2019-04-21T23:44:55.167Z,48.40
2019-04-21T23:47:37.455Z,48.70
2019-04-21T23:50:00.459Z,48.20
2019-04-21T23:52:24.004Z,48.10
2019-04-21T23:54:53.848Z,48.10
2019-04-21T23:57:30.279Z,48.10
2019-04-21T23:59:57.378Z,48.50
